Time;durP1;ratioP1;P1;durP2;ratioP2;P2;SDS_P1;SDS_P2;PMS_P1;PMS_P2;Temp;Humidity;BMP_temperature;BMP_pressure;BME280_temperature;BME280_humidity;BME280_pressure;Samples;Min_cycle;Max_cycle;Signal;HPM_P1;HPM_P2
2023/05/08 00:03:28;;;;;;;;;;;;;;;;;;;;;
2023/05/08 00:07:19;;;;;;;;;;;;;;;;;;;;;
2023/05/08 00:10:50;;;;;;;12.30;9.00;;;;;;;2.61;81.32;101347.24;134236;1297;22345;-78
2023/05/08 00:14:32;;;;;;;14.20;9.20;;;;;;;2.55;81.67;101349.67;134193;1298;22225;-81
2023/05/08 00:18:30;;;;;;;;;;;;;;;;;;;;;
2023/05/08 00:22:04;;;;;;;12.80;9.00;;;;;;;2.39;82.29;101348.98;134234;1297;22375;-81
2023/05/08 00:29:42;;;;;;;;;;;;;;;;;;;;;
2023/05/08 00:33:34;;;;;;;;;;;;;;;;;;;;;
2023/05/08 00:37:39;;;;;;;;;;;;;;;;;;;;;
2023/05/08 00:42:11;;;;;;;13.90;8.70;;;;;;;2.35;83.01;101353.45;133882;1298;23321;-80
2023/05/08 00:46:12;;;;;;;12.70;8.80;;;;;;;2.34;82.92;101353.98;134099;1299;22366;-81
2023/05/08 00:49:28;;;;;;;14.90;9.80;;;;;;;2.34;83.00;101359.04;133981;1298;22386;-80
2023/05/08 00:52:33;;;;;;;15.60;10.00;;;;;;;2.36;83.06;101357.36;134093;1301;22373;-81
2023/05/08 00:55:37;;;;;;;15.80;10.20;;;;;;;2.37;83.06;101355.90;134200;1297;22364;-80
2023/05/08 00:59:30;;;;;;;;;;;;;;;;;;;;;
2023/05/08 01:02:40;;;;;;;19.50;11.90;;;;;;;2.37;83.12;101356.83;133976;1297;22396;-79
2023/05/08 01:06:15;;;;;;;16.90;11.20;;;;;;;2.36;83.29;101359.29;134058;1299;22446;-80
2023/05/08 01:09:49;;;;;;;16.00;10.20;;;;;;;2.36;83.08;101359.47;134212;1297;22188;-80
2023/05/08 01:18:23;;;;;;;17.00;10.20;;;;;;;2.25;83.25;101364.41;133971;1298;23161;-79
2023/05/08 01:26:52;;;;;;;;;;;;;;;;;;;;;
2023/05/08 01:30:32;;;;;;;14.80;9.40;;;;;;;2.00;83.38;101371.34;134151;1298;22379;-79
2023/05/08 01:33:56;;;;;;;;;;;;;;;;;;;;;
2023/05/08 01:37:15;;;;;;;11.60;8.10;;;;;;;1.84;83.61;101375.69;134208;1298;22191;-80
2023/05/08 01:41:42;;;;;;;13.30;8.10;;;;;;;1.80;83.76;101376.23;134089;1297;22409;-79
2023/05/08 01:45:28;;;;;;;;;;;;;;;1.79;84.08;101376.80;134041;1297;23199;-80
2023/05/08 01:49:14;;;;;;;;;;;;;;;;;;;;;
2023/05/08 01:52:27;;;;;;;11.60;8.00;;;;;;;1.75;84.21;101374.05;133928;1301;22317;-80
2023/05/08 01:55:39;;;;;;;12.30;8.40;;;;;;;1.74;84.40;101373.92;134227;1297;22348;-77
2023/05/08 01:59:03;;;;;;;13.50;8.10;;;;;;;1.73;84.36;101380.45;134085;1304;22348;-79
2023/05/08 02:02:53;;;;;;;13.90;8.20;;;;;;;1.72;84.43;101380.32;134224;1298;22454;-76
2023/05/08 02:06:15;;;;;;;;;;;;;;;;;;;;;
2023/05/08 02:13:34;;;;;;;16.60;9.70;;;;;;;1.66;84.75;101378.55;134107;1297;22240;-78
2023/05/08 02:16:47;;;;;;;13.80;8.90;;;;;;;1.65;84.79;101384.02;134096;1298;22246;-80
2023/05/08 02:24:13;;;;;;;13.10;7.10;;;;;;;1.64;84.84;101391.89;134188;1298;22217;-79
2023/05/08 02:28:44;;;;;;;11.80;8.30;;;;;;;1.62;84.88;101389.57;134210;1298;22355;-79
2023/05/08 02:36:47;;;;;;;11.20;8.00;;;;;;;1.53;85.16;101402.02;134112;1297;22520;-79
2023/05/08 02:39:55;;;;;;;11.60;8.00;;;;;;;1.53;85.38;101405.38;133938;1297;22401;-77
2023/05/08 02:42:56;;;;;;;13.90;8.40;;;;;;;1.52;85.24;101409.06;134188;1297;22985;-80
2023/05/08 02:46:47;;;;;;;13.00;8.50;;;;;;;1.51;85.46;101401.11;134241;1297;22976;-77
2023/05/08 02:50:51;;;;;;;;;;;;;;;;;;;;;
2023/05/08 02:54:24;;;;;;;10.80;8.10;;;;;;;1.49;85.59;101403.27;134190;1298;23179;-80
2023/05/08 02:57:42;;;;;;;14.20;9.20;;;;;;;1.48;85.48;101406.80;134096;1301;22313;-79
2023/05/08 03:01:38;;;;;;;11.90;8.50;;;;;;;1.46;85.59;101408.50;134206;1305;22336;-79
2023/05/08 03:04:52;;;;;;;14.80;8.90;;;;;;;1.43;85.60;101408.80;134111;1297;22435;-80
2023/05/08 03:16:50;;;;;;;28.90;18.70;;;;;;;1.38;85.80;101413.09;134031;1297;22371;-79
2023/05/08 03:19:57;;;;;;;36.00;20.00;;;;;;;1.36;85.77;101419.11;134187;1297;22227;-79
2023/05/08 03:23:22;;;;;;;23.30;15.00;;;;;;;1.37;85.91;101430.39;134078;1297;22186;-80
2023/05/08 03:27:08;;;;;;;;;;;;;;;;;;;;;
2023/05/08 03:31:43;;;;;;;15.90;9.20;;;;;;;1.36;86.02;101436.73;134165;1305;22415;-78
2023/05/08 03:34:22;;;;;;;14.30;9.00;;;;;;;1.37;86.07;101436.85;133906;1297;22359;-79
2023/05/08 03:37:53;;;;;;;16.10;8.80;;;;;;;1.40;86.23;101437.23;134246;1297;22417;-78
2023/05/08 03:41:48;;;;;;;;;;;;;;;;;;;;;
2023/05/08 03:46:10;;;;;;;13.60;7.90;;;;;;;1.61;86.47;101434.45;134079;1297;22398;-80
2023/05/08 03:49:40;;;;;;;11.80;8.30;;;;;;;1.87;86.81;101432.77;133912;1304;23100;-79
2023/05/08 03:57:33;;;;;;;12.60;8.50;;;;;;;2.73;86.82;101432.40;134011;1297;22431;-79
2023/05/08 04:05:45;;;;;;;11.60;7.60;;;;;;;3.69;85.60;101430.63;134000;1298;22446;-80
2023/05/08 04:13:47;;;;;;;10.50;6.90;;;;;;;4.55;84.53;101431.90;134194;1297;22352;-80
2023/05/08 04:27:08;;;;;;;8.40;6.50;;;;;;;5.98;82.24;101446.80;133934;1305;22380;-78
2023/05/08 04:35:44;;;;;;;9.70;6.40;;;;;;;6.78;80.60;101453.14;134018;1297;23006;-83
2023/05/08 04:38:39;;;;;;;9.20;6.80;;;;;;;7.04;79.99;101454.80;134315;1298;22477;-86
2023/05/08 04:41:51;;;;;;;8.60;7.00;;;;;;;7.31;79.37;101456.36;134146;1297;22443;-86
2023/05/08 04:45:27;;;;;;;;;;;;;;;;;;;;;
2023/05/08 04:53:15;;;;;;;;;;;;;;;;;;;;;
2023/05/08 04:56:47;;;;;;;11.10;6.90;;;;;;;7.61;76.35;101475.92;134215;1305;23322;-89
2023/05/08 05:04:42;;;;;;;;;;;;;;;;;;;;;
2023/05/08 05:21:47;;;;;;;8.60;6.20;;;;;;;8.35;72.65;101485.66;134222;1297;22430;-90
2023/05/08 05:25:35;;;;;;;7.40;6.00;;;;;;;8.21;72.01;101493.14;133937;1297;22430;-88
2023/05/08 05:29:03;;;;;;;8.90;5.80;;;;;;;8.16;71.89;101493.30;134240;1305;23664;-81
2023/05/08 05:32:30;;;;;;;13.30;7.00;;;;;;;8.07;71.52;101493.81;134231;1302;22513;-87
2023/05/08 05:36:22;;;;;;;;;;;;;;;;;;;;;
2023/05/08 05:40:00;;;;;;;7.70;6.40;;;;;;;8.37;72.12;101500.37;134266;1298;22445;-86
2023/05/08 05:43:42;;;;;;;10.00;7.40;;;;;;;8.58;71.96;101496.45;134212;1305;23596;-79
2023/05/08 05:47:20;;;;;;;9.50;6.80;;;;;;;8.78;71.16;101501.21;134252;1297;22259;-84
2023/05/08 05:50:46;;;;;;;10.80;6.80;;;;;;;8.96;70.66;101494.65;134191;1298;22435;-80
2023/05/08 05:53:51;;;;;;;10.10;7.40;;;;;;;8.90;69.44;101499.03;134057;1301;22364;-82
2023/05/08 05:57:08;;;;;;;;;;;;;;;;;;;;;
2023/05/08 06:00:16;;;;;;;10.60;7.60;;;;;;;8.65;69.84;101502.73;134216;1297;22375;-84
2023/05/08 06:03:40;;;;;;;12.30;7.10;;;;;;;8.71;69.60;101506.73;134148;1298;22377;-78
2023/05/08 06:07:29;;;;;;;7.80;6.50;;;;;;;8.84;69.36;101513.11;134219;1299;22464;-89
2023/05/08 06:11:27;;;;;;;9.90;6.40;;;;;;;9.00;69.87;101515.66;134337;1297;22437;-88
2023/05/08 06:14:50;;;;;;;8.40;6.60;;;;;;;9.03;68.83;101513.65;134267;1297;22230;-87
2023/05/08 06:22:38;;;;;;;;;;;;;;;;;;;;;
2023/05/08 06:26:41;;;;;;;;;;;;;;;;;;;;;
2023/05/08 06:30:35;;;;;;;;;;;;;;;;;;;;;
2023/05/08 06:34:19;;;;;;;6.10;5.30;;;;;;;9.47;66.84;101520.73;134128;1297;22420;-85
2023/05/08 06:42:27;;;;;;;9.70;5.50;;;;;;;9.77;66.57;101527.45;134059;1297;23105;-88
2023/05/08 06:45:26;;;;;;;7.90;5.40;;;;;;;9.68;65.88;101524.48;134002;1297;22446;-82
2023/05/08 06:49:09;;;;;;;8.10;5.80;;;;;;;9.76;66.02;101531.97;134191;1301;23175;-88
2023/05/08 06:52:41;;;;;;;8.20;5.50;;;;;;;9.76;65.07;101531.23;134097;1302;22382;-87
2023/05/08 06:56:18;;;;;;;7.50;5.50;;;;;;;9.60;64.49;101531.11;134212;1297;22333;-88
2023/05/08 06:59:35;;;;;;;6.80;5.10;;;;;;;9.69;64.98;101537.80;134267;1298;22363;-86
2023/05/08 07:03:44;;;;;;;5.40;4.80;;;;;;;9.79;65.07;101535.98;134217;1297;22205;-88
2023/05/08 07:23:04;;;;;;;7.90;5.30;;;;;;;10.06;62.57;101543.91;134206;1298;22385;-81
2023/05/08 07:26:21;;;;;;;6.60;5.40;;;;;;;10.02;62.09;101544.79;134221;1297;22224;-85
2023/05/08 07:30:07;;;;;;;6.80;5.20;;;;;;;10.06;62.09;101546.59;134245;1298;22245;-88
2023/05/08 07:33:34;;;;;;;9.30;6.00;;;;;;;10.16;61.56;101538.16;133975;1297;22345;-88
2023/05/08 07:37:10;;;;;;;7.30;5.50;;;;;;;10.21;61.65;101538.41;134077;1301;22392;-88
2023/05/08 07:40:47;;;;;;;;;;;;;;;;;;;;;
2023/05/08 07:44:42;;;;;;;;;;;;;;;;;;;;;
2023/05/08 07:48:11;;;;;;;6.80;5.10;;;;;;;10.44;61.47;101529.84;134152;1297;22430;-87
2023/05/08 07:51:54;;;;;;;8.80;5.90;;;;;;;10.74;60.69;101531.13;129972;1303;5436442;-88
2023/05/08 08:00:11;;;;;;;7.10;5.40;;;;;;;10.82;60.35;101528.09;134114;1297;23081;-88
2023/05/08 08:08:36;;;;;;;;;;;;;;;;;;;;;
2023/05/08 08:17:35;;;;;;;7.40;5.40;;;;;;;11.18;55.80;101526.20;134050;1298;23582;-88
2023/05/08 08:21:24;;;;;;;;;;;;;;;;;;;;;
2023/05/08 08:25:13;;;;;;;8.80;4.50;;;;;;;11.30;55.70;101528.86;133987;1297;22690;-87
2023/05/08 08:29:17;;;;;;;;;;;;;;;;;;;;;
2023/05/08 08:33:46;;;;;;;4.30;3.80;;;;;;;11.50;53.89;101526.61;133855;1301;23037;-86
2023/05/08 08:36:54;;;;;;;6.00;4.80;;;;;;;11.35;53.46;101542.94;134147;1302;22387;-85
2023/05/08 08:40:05;;;;;;;;;;;;;;;;;;;;;
2023/05/08 08:43:28;;;;;;;5.80;4.50;;;;;;;11.06;54.23;101538.36;134086;1298;22379;-81
2023/05/08 08:46:51;;;;;;;7.40;4.80;;;;;;;10.97;54.76;101538.45;133847;1297;22385;-85
2023/05/08 08:50:38;;;;;;;;;;;;;;;;;;;;;
2023/05/08 08:54:36;;;;;;;8.20;5.10;;;;;;;11.45;55.29;101549.59;134081;1304;22494;-86
2023/05/08 08:58:05;;;;;;;7.90;4.70;;;;;;;11.35;54.40;101550.16;134195;1297;22396;-84
2023/05/08 09:01:29;;;;;;;5.70;4.70;;;;;;;11.15;54.85;101543.09;134198;1305;22151;-85
2023/05/08 09:04:51;;;;;;;7.20;5.10;;;;;;;11.28;55.22;101550.61;134221;1298;22442;-85
2023/05/08 09:07:57;;;;;;;6.30;5.30;;;;;;;11.21;54.64;101557.98;134233;1298;22442;-81
2023/05/08 09:11:25;;;;;;;5.30;4.50;;;;;;;11.13;54.38;101560.79;134264;1298;22429;-87
2023/05/08 09:14:32;;;;;;;7.30;5.90;;;;;;;11.02;53.90;101549.17;134216;1301;22433;-86
2023/05/08 09:17:50;;;;;;;;;;;;;;;;;;;;;
2023/05/08 09:21:21;;;;;;;8.00;5.10;;;;;;;11.15;54.54;101558.77;134207;1297;23227;-85
2023/05/08 09:25:02;;;;;;;7.90;5.70;;;;;;;11.11;54.43;101548.23;134084;1301;22974;-84
2023/05/08 09:28:41;;;;;;;8.10;5.40;;;;;;;11.30;54.99;101548.48;134001;1298;22379;-84
2023/05/08 09:32:19;;;;;;;6.40;5.50;;;;;;;11.34;54.17;101540.20;134074;1300;22133;-86
2023/05/08 09:39:35;;;;;;;;;;;;;;;;;;;;;
2023/05/08 09:42:37;;;;;;;7.70;6.00;;;;;;;11.36;54.87;101534.32;134082;1298;23176;-84
2023/05/08 09:45:40;;;;;;;8.70;6.50;;;;;;;11.44;54.14;101542.27;134249;1298;22394;-85
2023/05/08 09:48:56;;;;;;;9.90;5.80;;;;;;;11.46;54.73;101538.77;134055;1298;23038;-81
2023/05/08 09:52:21;;;;;;;10.90;5.80;;;;;;;11.53;54.69;101532.05;134139;1297;22838;-84
2023/05/08 09:55:34;;;;;;;;;;;;;;;;;;;;;
2023/05/08 10:03:01;;;;;;;7.00;5.20;;;;;;;11.87;53.50;101529.34;134195;1298;22402;-84
2023/05/08 10:10:04;;;;;;;8.70;5.80;;;;;;;11.82;53.37;101521.48;134242;1297;22327;-81
2023/05/08 10:13:18;;;;;;;7.30;5.90;;;;;;;11.84;53.43;101520.00;134194;1298;22863;-86
2023/05/08 10:20:52;;;;;;;;;;;;;;;;;;;;;
2023/05/08 10:24:57;;;;;;;9.40;5.50;;;;;;;11.76;53.11;101508.33;134212;1305;23142;-87
2023/05/08 10:28:37;;;;;;;7.90;5.10;;;;;;;11.98;52.39;101507.81;134202;1298;23002;-84
2023/05/08 10:32:22;;;;;;;10.10;5.70;;;;;;;12.10;53.34;101497.45;134100;1301;23215;-87
2023/05/08 10:36:13;;;;;;;;;;;;;;;;;;;;;
2023/05/08 10:39:34;;;;;;;7.40;4.50;;;;;;;12.50;51.38;101501.27;133934;1298;22464;-87
2023/05/08 10:42:56;;;;;;;9.10;5.60;;;;;;;12.39;52.23;101500.91;134167;1298;23072;-87
2023/05/08 10:46:45;;;;;;;5.20;4.50;;;;;;;12.38;51.79;101490.38;134118;1301;22445;-88
2023/05/08 10:50:35;;;;;;;;;;;;;;;;;;;;;
2023/05/08 10:54:35;;;;;;;;;;;;;;;;;;;;;
2023/05/08 10:58:07;;;;;;;;;;;;;;;;;;;;;
2023/05/08 11:02:25;;;;;;;;;;;;;;;;;;;;;
2023/05/08 11:06:10;;;;;;;;;;;;;;;;;;;;;
2023/05/08 11:09:49;;;;;;;6.20;5.30;;;;;;;12.71;50.94;101473.89;134221;1296;22326;-87
2023/05/08 11:17:45;;;;;;;;;;;;;;;;;;;;;
2023/05/08 11:21:17;;;;;;;5.30;4.60;;;;;;;12.74;49.77;101468.80;133903;1298;22379;-85
2023/05/08 11:24:49;;;;;;;;;;;;;;;;;;;;;
2023/05/08 11:28:12;;;;;;;5.40;4.20;;;;;;;12.95;49.20;101462.73;134123;1305;22381;-86
2023/05/08 11:31:19;;;;;;;6.10;4.70;;;;;;;12.96;48.95;101474.20;134081;1298;22434;-87
2023/05/08 11:35:20;;;;;;;;;;;;;;;;;;;;;
2023/05/08 11:38:51;;;;;;;;;;;;;;;;;;;;;
2023/05/08 11:43:15;;;;;;;;;;;;;;;;;;;;;
2023/05/08 11:47:02;;;;;;;;;;;;;;;;;;;;;
2023/05/08 11:51:14;;;;;;;5.70;3.80;;;;;;;13.14;48.03;101448.77;134094;1298;22377;-87
2023/05/08 11:54:15;;;;;;;7.10;3.90;;;;;;;13.26;49.27;101448.19;134149;1298;23172;-85
2023/05/08 11:57:46;;;;;;;;;;;;;;;;;;;;;
2023/05/08 12:05:28;;;;;;;6.50;3.80;;;;;;;13.27;47.66;101442.73;134046;1298;22209;-75
2023/05/08 12:09:37;;;;;;;;;;;;;;;;;;;;;
2023/05/08 12:12:56;;;;;;;5.60;3.40;;;;;;;13.24;47.10;101440.20;134204;1298;22398;-78
2023/05/08 12:17:26;;;;;;;6.00;4.50;;;;;;;13.14;47.25;101443.95;134067;1305;22494;-78
2023/05/08 12:20:24;;;;;;;7.00;4.40;;;;;;;13.21;47.70;101437.41;133958;1298;23381;-78
2023/05/08 12:24:15;;;;;;;;;;;;;;;;;;;;;
2023/05/08 12:28:49;;;;;;;5.90;3.80;;;;;;;13.59;47.81;101437.40;134002;1297;23140;-79
2023/05/08 12:31:58;;;;;;;7.80;3.90;;;;;;;13.71;47.77;101431.80;133984;1298;23140;-78
2023/05/08 12:44:07;;;;;;;;;;;;;;;;;;;;;
2023/05/08 12:52:22;;;;;;;5.80;3.80;;;;;;;13.79;46.04;101434.48;134014;1301;22984;-78
2023/05/08 12:56:00;;;;;;;5.60;3.70;;;;;;;13.69;46.35;101431.77;134196;1298;22367;-78
2023/05/08 13:04:06;;;;;;;;;;;;;;;;;;;;;
2023/05/08 13:07:41;;;;;;;6.00;4.10;;;;;;;13.74;46.63;101409.38;134170;1298;23154;-78
2023/05/08 13:11:47;;;;;;;;;;;;;;;;;;;;;
2023/05/08 13:15:28;;;;;;;;;;;;;;;;;;;;;
2023/05/08 13:19:39;;;;;;;;;;;;;;;;;;;;;
2023/05/08 13:23:39;;;;;;;;;;;;;;;;;;;;;
2023/05/08 13:27:22;;;;;;;;;;;;;;;;;;;;;
2023/05/08 13:35:06;;;;;;;;;;;;;;;;;;;;;
2023/05/08 13:42:48;;;;;;;;;;;;;;;;;;;;;
2023/05/08 13:46:54;;;;;;;9.20;3.20;;;;;;;13.63;45.31;101376.75;133902;1298;22473;-77
2023/05/08 13:50:49;;;;;;;;;;;;;;;;;;;;;
2023/05/08 13:54:27;;;;;;;8.00;3.00;;;;;;;13.50;45.82;101369.37;134181;1298;22843;-78
2023/05/08 13:58:15;;;;;;;6.90;3.60;;;;;;;13.58;45.76;101366.98;134216;1304;22433;-77
2023/05/08 14:01:29;;;;;;;6.70;3.10;;;;;;;13.68;44.93;101368.02;134250;1298;22404;-78
2023/05/08 14:04:39;;;;;;;4.80;3.10;;;;;;;13.73;45.41;101365.95;134189;1299;22201;-78
2023/05/08 14:08:06;;;;;;;4.50;3.40;;;;;;;13.76;45.45;101361.34;134189;1299;23209;-77
2023/05/08 14:11:13;;;;;;;4.50;2.90;;;;;;;13.75;45.23;101364.66;134171;1301;22333;-77
2023/05/08 14:27:17;;;;;;;3.70;3.20;;;;;;;13.66;44.66;101353.10;133905;1299;23059;-78
2023/05/08 14:30:25;;;;;;;6.40;2.80;;;;;;;13.67;44.52;101354.98;134222;1298;22207;-78
2023/05/08 14:33:59;;;;;;;5.70;3.00;;;;;;;13.57;44.55;101358.65;134218;1305;22369;-78
2023/05/08 14:49:31;;;;;;;;;;;;;;;;;;;;;
2023/05/08 14:52:56;;;;;;;4.00;2.30;;;;;;;13.71;44.46;101339.67;134125;1305;23021;-77
2023/05/08 14:56:49;;;;;;;4.00;3.10;;;;;;;13.65;44.97;101340.58;134190;1298;22431;-77
2023/05/08 15:01:06;;;;;;;;;;;;;;;;;;;;;
2023/05/08 15:04:50;;;;;;;;;;;;;;;;;;;;;
2023/05/08 15:09:19;;;;;;;6.80;2.70;;;;;;;13.50;44.16;101354.06;133464;1301;22419;-76
2023/05/08 15:25:44;;;;;;;;;;;;;;;;;;;;;
2023/05/08 15:29:46;;;;;;;6.10;2.90;;;;;;;13.53;45.40;101342.17;133928;1298;22284;-82
2023/05/08 15:33:10;;;;;;;4.90;2.80;;;;;;;13.56;45.06;101344.94;134240;1298;23093;-80
2023/05/08 15:36:51;;;;;;;;;;;;;;;;;;;;;
2023/05/08 15:44:05;;;;;;;;;;;;;;;;;;;;;
2023/05/08 15:47:25;;;;;;;;;;;;;;;;;;;;;
2023/05/08 15:50:32;;;;;;;2.90;2.70;;;;;;;13.35;44.46;101339.70;134230;1298;22369;-82
2023/05/08 15:53:55;;;;;;;2.80;2.50;;;;;;;13.33;44.81;101330.35;134218;1298;22238;-76
2023/05/08 15:57:21;;;;;;;2.90;2.50;;;;;;;13.32;44.91;101331.20;134210;1305;22465;-82
2023/05/08 16:00:57;;;;;;;;;;;;;;;;;;;;;
2023/05/08 16:05:05;;;;;;;4.50;2.70;;;;;;;13.22;44.41;101329.14;134201;1297;22390;-76
2023/05/08 16:08:24;;;;;;;5.20;3.20;;;;;;;13.14;44.73;101321.24;133967;1297;22238;-82
2023/05/08 16:11:47;;;;;;;3.80;2.70;;;;;;;13.10;44.69;101323.94;134065;1297;23148;-82
2023/05/08 16:18:53;;;;;;;3.90;2.80;;;;;;;13.06;44.70;101321.70;134171;1300;22385;-82
2023/05/08 16:23:02;;;;;;;3.80;2.90;;;;;;;13.06;44.89;101321.04;134211;1298;23095;-85
2023/05/08 16:26:53;;;;;;;;;;;;;;;;;;;;;
2023/05/08 16:30:45;;;;;;;;;;;;;;;;;;;;;
2023/05/08 16:34:13;;;;;;;8.60;2.80;;;;;;;13.03;44.83;101319.35;134184;1298;22437;-89
2023/05/08 16:37:54;;;;;;;;;;;;;;;;;;;;;
2023/05/08 16:42:18;;;;;;;;;;;;;;;;;;;;;
2023/05/08 16:46:00;;;;;;;;;;;;;;;;;;;;;
2023/05/08 16:49:06;;;;;;;4.00;2.20;;;;;;;12.79;44.99;101330.02;134195;1298;22433;-81
2023/05/08 16:52:07;;;;;;;4.00;2.60;;;;;;;12.74;44.84;101330.70;134177;1298;22241;-82
2023/05/08 16:55:54;;;;;;;;;;;;;;;;;;;;;
2023/05/08 16:59:41;;;;;;;8.30;2.80;;;;;;;12.62;44.90;101327.48;134024;1297;22205;-85
2023/05/08 17:03:51;;;;;;;;;;;;;;;;;;;;;
2023/05/08 17:12:23;;;;;;;;;;;;;;;;;;;;;
2023/05/08 17:16:49;;;;;;;4.20;3.10;;;;;;;12.36;45.46;101323.92;133998;1298;23154;-85
2023/05/08 17:20:18;;;;;;;5.40;2.70;;;;;;;12.29;45.57;101323.39;134196;1298;22466;-90
2023/05/08 17:24:00;;;;;;;5.00;2.20;;;;;;;12.23;45.64;101320.27;134214;1298;22303;-91
2023/05/08 17:27:08;;;;;;;3.90;2.60;;;;;;;12.17;45.71;101324.19;134213;1297;22495;-90
2023/05/08 17:30:15;;;;;;;5.50;2.70;;;;;;;12.11;45.62;101328.50;134232;1298;22438;-90
2023/05/08 17:33:19;;;;;;;4.00;2.40;;;;;;;12.06;45.82;101330.04;134096;1291;22329;-87
2023/05/08 17:36:32;;;;;;;6.20;2.60;;;;;;;12.00;45.61;101333.95;134189;1298;22241;-86
2023/05/08 17:39:50;;;;;;;3.00;2.40;;;;;;;11.94;45.68;101332.08;134237;1297;22157;-87
2023/05/08 17:42:58;;;;;;;4.40;2.60;;;;;;;11.88;45.97;101332.48;134198;1297;22396;-87
2023/05/08 17:49:44;;;;;;;5.20;3.00;;;;;;;11.74;46.45;101331.52;134165;1297;22369;-87
2023/05/08 17:53:28;;;;;;;2.80;2.50;;;;;;;11.66;46.52;101337.65;134212;1298;22437;-87
2023/05/08 17:56:29;;;;;;;3.90;3.10;;;;;;;11.59;46.67;101335.88;134180;1298;23128;-87
2023/05/08 17:59:30;;;;;;;5.30;2.90;;;;;;;11.51;46.65;101339.98;134184;1297;22868;-88
2023/05/08 18:03:05;;;;;;;;;;;;;;;;;;;;;
2023/05/08 18:06:16;;;;;;;6.70;2.80;;;;;;;11.37;46.88;101345.37;134183;1297;22346;-84
2023/05/08 18:09:44;;;;;;;4.90;2.70;;;;;;;11.30;47.01;101344.29;134171;1297;23149;-86
2023/05/08 18:12:48;;;;;;;5.70;3.00;;;;;;;11.20;47.25;101344.30;134110;1299;22468;-87
2023/05/08 18:15:51;;;;;;;5.50;2.90;;;;;;;11.12;47.19;101347.48;134101;1298;23126;-86
2023/05/08 18:22:40;;;;;;;5.00;2.70;;;;;;;10.93;47.49;101350.25;134194;1297;23286;-87
2023/05/08 18:26:15;;;;;;;3.60;2.70;;;;;;;10.85;47.60;101356.34;134022;1296;22369;-86
2023/05/08 18:29:50;;;;;;;8.40;3.00;;;;;;;10.74;47.75;101357.45;134124;1298;22410;-87
2023/05/08 18:32:52;;;;;;;4.00;2.80;;;;;;;10.62;47.94;101357.12;134196;1297;22171;-87
2023/05/08 18:35:53;;;;;;;4.80;2.90;;;;;;;10.54;48.01;101363.30;134032;1298;22349;-86
2023/05/08 18:38:54;;;;;;;4.40;3.00;;;;;;;10.46;48.16;101362.25;134143;1298;22368;-84
2023/05/08 18:42:04;;;;;;;;;;;;;;;;;;;;;
2023/05/08 18:45:12;;;;;;;5.30;2.80;;;;;;;10.28;48.49;101367.00;134221;1297;22538;-82
2023/05/08 18:48:38;;;;;;;6.50;4.40;;;;;;;10.19;48.80;101376.09;134194;1297;22970;-89
2023/05/08 18:52:29;;;;;;;;;;;;;;;;;;;;;
2023/05/08 18:56:11;;;;;;;;;;;;;;;;;;;;;
2023/05/08 19:00:03;;;;;;;6.90;4.20;;;;;;;9.82;49.59;101387.94;134248;1297;22362;-88
2023/05/08 19:03:10;;;;;;;5.00;3.80;;;;;;;9.73;49.88;101387.50;134226;1297;22418;-89
2023/05/08 19:06:23;;;;;;;;;;;;;;;;;;;;;
2023/05/08 19:09:35;;;;;;;10.10;4.30;;;;;;;9.56;50.29;101394.52;133993;1298;23168;-75
2023/05/08 19:12:36;;;;;;;;;;;;;;;9.47;50.56;101402.19;134108;1298;22462;-75
2023/05/08 19:15:40;;;;;;;7.60;4.80;;;;;;;9.38;50.84;101401.52;133793;1298;23599;-74
2023/05/08 19:19:04;;;;;;;8.60;5.00;;;;;;;9.25;50.95;101397.84;134230;1297;22430;-75
2023/05/08 19:22:14;;;;;;;6.50;4.20;;;;;;;9.14;51.37;101407.24;134070;1297;22491;-77
2023/05/08 19:25:18;;;;;;;6.20;4.70;;;;;;;9.00;51.52;101402.73;134220;1298;23094;-76
2023/05/08 19:28:28;;;;;;;6.70;4.00;;;;;;;8.92;51.71;101401.59;134121;1297;22664;-76
2023/05/08 19:31:32;;;;;;;5.30;4.10;;;;;;;8.86;51.93;101400.52;134275;1297;22420;-76
2023/05/08 19:35:27;;;;;;;;;;;;;;;;;;;;;
2023/05/08 19:38:45;;;;;;;;;;;;;;;;;;;;;
2023/05/08 19:42:16;;;;;;;;;;;;;;;;;;;;;
2023/05/08 19:45:36;;;;;;;7.60;4.40;;;;;;;8.49;52.75;101404.53;134165;1298;22372;-76
2023/05/08 19:48:40;;;;;;;7.90;4.70;;;;;;;8.40;52.90;101401.17;134097;1298;22364;-75
2023/05/08 19:51:47;;;;;;;9.80;5.20;;;;;;;8.33;52.95;101404.20;129491;1298;6214701;-75
2023/05/08 19:54:52;;;;;;;11.10;5.90;;;;;;;8.27;53.20;101400.60;134260;1297;22206;-76
2023/05/08 19:57:53;;;;;;;8.80;5.60;;;;;;;8.23;53.41;101400.89;134250;1297;22189;-76
2023/05/08 20:00:53;;;;;;;;;;;;;;;8.19;53.50;101399.15;134129;1298;22467;-76
2023/05/08 20:04:09;;;;;;;9.80;6.40;;;;;;;8.12;53.63;101398.28;134221;1297;22541;-77
2023/05/08 20:07:20;;;;;;;13.40;6.90;;;;;;;8.03;53.86;101397.67;134234;1297;22470;-76
2023/05/08 20:10:50;;;;;;;;;;;;;;;7.92;54.21;101398.04;134226;1297;22480;-76
2023/05/08 20:13:59;;;;;;;14.90;8.10;;;;;;;7.76;54.27;101399.82;134118;1297;23291;-76
2023/05/08 20:17:09;;;;;;;20.50;11.20;;;;;;;7.64;54.61;101400.89;134241;1297;22448;-77
2023/05/08 20:20:45;;;;;;;;;;;;;;;;;;;;;
2023/05/08 20:23:47;;;;;;;13.20;7.80;;;;;;;7.44;55.23;101399.42;134159;1298;22380;-77
2023/05/08 20:26:48;;;;;;;15.00;9.00;;;;;;;7.35;55.51;101399.02;134185;1297;22338;-75
2023/05/08 20:29:52;;;;;;;18.20;9.80;;;;;;;7.26;55.88;101403.04;134085;1299;22450;-76
2023/05/08 20:32:53;;;;;;;18.00;9.30;;;;;;;7.17;56.15;101400.84;134181;1297;22373;-76
2023/05/08 20:36:07;;;;;;;15.80;8.60;;;;;;;7.09;56.23;101399.16;134214;1298;22761;-76
2023/05/08 20:39:11;;;;;;;13.70;8.20;;;;;;;7.01;56.64;101397.34;134217;1298;22398;-76
2023/05/08 20:42:12;;;;;;;17.90;9.10;;;;;;;6.94;56.81;101399.92;134088;1298;22168;-77
2023/05/08 20:45:13;;;;;;;;;;;;;;;6.88;56.92;101403.54;134229;1297;22459;-76
2023/05/08 20:48:14;;;;;;;14.70;8.20;;;;;;;6.81;57.09;101400.54;134175;1297;22420;-76
2023/05/08 20:51:39;;;;;;;13.20;8.30;;;;;;;6.72;57.33;101398.67;134227;1297;22478;-77
2023/05/08 20:54:47;;;;;;;12.60;8.20;;;;;;;6.65;57.61;101402.73;133945;1296;22370;-76
2023/05/08 20:57:48;;;;;;;15.50;8.80;;;;;;;6.58;57.78;101399.00;134225;1297;22553;-76
2023/05/08 21:00:52;;;;;;;13.70;8.40;;;;;;;6.54;57.99;101400.34;134210;1297;23235;-76
2023/05/08 21:03:53;;;;;;;14.60;8.50;;;;;;;6.48;58.03;101403.38;134212;1297;22555;-76
2023/05/08 21:07:10;;;;;;;13.80;8.10;;;;;;;6.42;58.30;101399.83;134231;1298;22365;-76
2023/05/08 21:10:15;;;;;;;12.10;7.20;;;;;;;6.35;58.32;101399.09;134211;1297;22276;-77
2023/05/08 21:13:18;;;;;;;13.70;8.20;;;;;;;6.27;58.67;101397.67;134254;1297;23201;-76
2023/05/08 21:19:30;;;;;;;14.40;8.20;;;;;;;6.10;59.27;101392.37;134212;1297;22634;-76
2023/05/08 21:22:38;;;;;;;13.10;7.70;;;;;;;6.02;59.63;101391.36;134056;1297;22264;-77
2023/05/08 21:25:51;;;;;;;13.40;7.50;;;;;;;5.92;59.89;101381.67;134244;1297;22370;-76
2023/05/08 21:29:00;;;;;;;15.20;8.30;;;;;;;5.83;60.30;101381.56;134114;1299;22342;-76
2023/05/08 21:32:01;;;;;;;17.40;9.90;;;;;;;5.74;60.34;101380.41;134198;1298;22495;-76
2023/05/08 21:35:03;;;;;;;17.70;9.50;;;;;;;5.67;60.42;101379.66;134192;1298;22224;-76
2023/05/08 21:38:04;;;;;;;14.90;8.40;;;;;;;5.65;60.68;101381.23;134195;1298;22378;-75
2023/05/08 21:41:08;;;;;;;17.30;9.20;;;;;;;5.59;60.98;101379.16;134213;1297;22389;-76
2023/05/08 21:44:12;;;;;;;17.10;9.40;;;;;;;5.49;61.15;101377.71;134230;1297;22372;-76
2023/05/08 21:47:31;;;;;;;;;;;;;;;;;;;;;
2023/05/08 21:50:46;;;;;;;19.60;10.30;;;;;;;5.24;61.52;101382.70;134205;1298;22399;-76
2023/05/08 21:53:52;;;;;;;21.60;10.50;;;;;;;5.11;61.93;101379.52;134098;1298;23055;-75
2023/05/08 21:57:05;;;;;;;20.40;10.50;;;;;;;5.02;62.55;101380.15;134051;1299;22396;-75
2023/05/08 22:00:09;;;;;;;17.10;9.80;;;;;;;4.92;62.72;101377.78;134172;1298;22190;-76
2023/05/08 22:03:30;;;;;;;;;;;;;;;;;;;;;
2023/05/08 22:06:31;;;;;;;;;;;;;;;4.72;63.43;101382.25;134220;1297;22565;-76
2023/05/08 22:09:38;;;;;;;19.40;9.50;;;;;;;4.64;63.67;101376.43;134232;1298;22494;-76
2023/05/08 22:12:47;;;;;;;17.50;9.20;;;;;;;4.59;63.78;101375.55;134254;1297;22374;-75
2023/05/08 22:15:57;;;;;;;19.90;10.20;;;;;;;4.53;63.84;101375.75;134217;1298;22252;-76
2023/05/08 22:18:58;;;;;;;20.00;10.80;;;;;;;4.48;63.94;101369.58;134237;1297;22390;-76
2023/05/08 22:22:01;;;;;;;24.40;12.80;;;;;;;4.46;64.30;101367.07;134214;1297;23027;-76
2023/05/08 22:25:18;;;;;;;23.50;11.60;;;;;;;4.46;64.77;101363.54;134242;1297;22210;-76
2023/05/08 22:28:21;;;;;;;24.80;14.30;;;;;;;4.50;64.87;101359.98;134231;1297;22354;-76
2023/05/08 22:31:22;;;;;;;;;;;;;;;4.55;65.04;101357.96;134226;1298;22462;-76
2023/05/08 22:34:23;;;;;;;24.10;14.70;;;;;;;4.58;65.28;101359.11;134202;1301;22458;-74
2023/05/08 22:37:33;;;;;;;;;;;;;;;4.64;65.43;101358.23;134215;1297;22519;-76